sensor_id;sensor_type;location;lat;lon;timestamp;pressure;altitude;pressure_sealevel;temperature;humidity
78890;BME280;68279;48.964;14.502;2024-03-23T00:53:37;96362.22;;;9.33;91.69
78890;BME280;68279;48.964;14.502;2024-03-23T00:56:03;96353.34;;;9.38;91.49
78890;BME280;68279;48.964;14.502;2024-03-23T00:58:29;96348.50;;;9.58;90.03
78890;BME280;68279;48.964;14.502;2024-03-23T01:00:54;96344.94;;;9.82;87.87
78890;BME280;68279;48.964;14.502;2024-03-23T01:03:20;96339.59;;;9.82;87.95
78890;BME280;68279;48.964;14.502;2024-03-23T01:05:46;96334.66;;;9.89;87.31
78890;BME280;68279;48.964;14.502;2024-03-23T01:08:11;96337.63;;;9.87;87.26
78890;BME280;68279;48.964;14.502;2024-03-23T01:10:37;96333.72;;;9.99;86.74
78890;BME280;68279;48.964;14.502;2024-03-23T01:13:03;96328.47;;;9.93;86.61
78890;BME280;68279;48.964;14.502;2024-03-23T01:15:28;96332.28;;;9.87;87.44
78890;BME280;68279;48.964;14.502;2024-03-23T01:17:54;96329.91;;;9.86;87.56
78890;BME280;68279;48.964;14.502;2024-03-23T01:20:19;96330.41;;;9.88;87.49
78890;BME280;68279;48.964;14.502;2024-03-23T01:22:45;96325.66;;;9.85;87.50
78890;BME280;68279;48.964;14.502;2024-03-23T01:25:11;96331.06;;;9.80;87.82
78890;BME280;68279;48.964;14.502;2024-03-23T01:27:36;96333.06;;;9.74;87.63
78890;BME280;68279;48.964;14.502;2024-03-23T01:30:02;96322.06;;;9.76;87.60
78890;BME280;68279;48.964;14.502;2024-03-23T01:32:27;96321.00;;;9.77;88.24
78890;BME280;68279;48.964;14.502;2024-03-23T01:34:53;96316.56;;;9.86;87.23
78890;BME280;68279;48.964;14.502;2024-03-23T01:37:19;96311.94;;;9.91;86.91
78890;BME280;68279;48.964;14.502;2024-03-23T01:39:45;96313.94;;;10.00;86.20
78890;BME280;68279;48.964;14.502;2024-03-23T01:42:10;96308.06;;;9.98;86.04
78890;BME280;68279;48.964;14.502;2024-03-23T01:44:36;96306.41;;;10.02;86.03
78890;BME280;68279;48.964;14.502;2024-03-23T01:47:02;96307.22;;;10.02;85.93
78890;BME280;68279;48.964;14.502;2024-03-23T01:49:27;96299.81;;;10.13;85.58
78890;BME280;68279;48.964;14.502;2024-03-23T01:51:53;96299.91;;;10.08;86.04
78890;BME280;68279;48.964;14.502;2024-03-23T01:54:19;96299.50;;;10.14;85.49
78890;BME280;68279;48.964;14.502;2024-03-23T01:56:45;96293.06;;;10.15;85.52
78890;BME280;68279;48.964;14.502;2024-03-23T01:59:11;96286.63;;;10.03;85.80
78890;BME280;68279;48.964;14.502;2024-03-23T02:01:37;96288.09;;;9.95;86.41
78890;BME280;68279;48.964;14.502;2024-03-23T02:04:02;96282.44;;;9.83;87.14
78890;BME280;68279;48.964;14.502;2024-03-23T02:06:28;96281.66;;;9.82;86.83
78890;BME280;68279;48.964;14.502;2024-03-23T02:08:54;96273.16;;;9.94;86.48
78890;BME280;68279;48.964;14.502;2024-03-23T02:11:20;96281.38;;;9.98;86.62
78890;BME280;68279;48.964;14.502;2024-03-23T02:13:45;96279.69;;;10.02;86.88
78890;BME280;68279;48.964;14.502;2024-03-23T02:16:11;96281.59;;;10.01;86.67
78890;BME280;68279;48.964;14.502;2024-03-23T02:18:38;96274.06;;;10.03;86.32
78890;BME280;68279;48.964;14.502;2024-03-23T02:21:04;96275.44;;;10.01;86.65
78890;BME280;68279;48.964;14.502;2024-03-23T02:23:30;96275.25;;;10.11;86.00
78890;BME280;68279;48.964;14.502;2024-03-23T02:25:55;96270.78;;;10.06;86.44
78890;BME280;68279;48.964;14.502;2024-03-23T02:28:21;96271.09;;;9.91;86.97
78890;BME280;68279;48.964;14.502;2024-03-23T02:30:50;96277.63;;;9.99;86.87
78890;BME280;68279;48.964;14.502;2024-03-23T02:33:16;96261.38;;;9.95;86.72
78890;BME280;68279;48.964;14.502;2024-03-23T02:35:42;96257.50;;;9.87;87.49
78890;BME280;68279;48.964;14.502;2024-03-23T02:38:07;96262.16;;;9.82;88.13
78890;BME280;68279;48.964;14.502;2024-03-23T02:40:33;96257.63;;;9.82;87.93
78890;BME280;68279;48.964;14.502;2024-03-23T02:42:59;96245.69;;;10.07;86.40
78890;BME280;68279;48.964;14.502;2024-03-23T02:45:24;96250.19;;;10.26;84.87
78890;BME280;68279;48.964;14.502;2024-03-23T02:47:50;96245.69;;;10.21;84.60
78890;BME280;68279;48.964;14.502;2024-03-23T02:50:18;96246.19;;;10.23;84.08
78890;BME280;68279;48.964;14.502;2024-03-23T02:52:44;96238.59;;;10.30;83.07
78890;BME280;68279;48.964;14.502;2024-03-23T02:55:09;96235.59;;;10.18;83.61
78890;BME280;68279;48.964;14.502;2024-03-23T02:57:35;96245.13;;;10.52;82.08
78890;BME280;68279;48.964;14.502;2024-03-23T03:00:01;96238.78;;;10.34;82.39
78890;BME280;68279;48.964;14.502;2024-03-23T03:02:26;96240.03;;;10.09;83.06
78890;BME280;68279;48.964;14.502;2024-03-23T03:04:52;96228.53;;;9.81;84.82
78890;BME280;68279;48.964;14.502;2024-03-23T03:07:17;96232.22;;;9.52;85.42
78890;BME280;68279;48.964;14.502;2024-03-23T03:09:43;96218.66;;;9.16;87.08
78890;BME280;68279;48.964;14.502;2024-03-23T03:12:09;96222.22;;;8.93;88.83
78890;BME280;68279;48.964;14.502;2024-03-23T03:14:35;96215.81;;;8.94;89.49
78890;BME280;68279;48.964;14.502;2024-03-23T03:17:00;96208.00;;;8.97;88.85
78890;BME280;68279;48.964;14.502;2024-03-23T03:19:26;96206.44;;;8.77;89.69
78890;BME280;68279;48.964;14.502;2024-03-23T03:21:52;96202.44;;;8.56;90.73
78890;BME280;68279;48.964;14.502;2024-03-23T03:24:18;96200.78;;;8.41;92.14
78890;BME280;68279;48.964;14.502;2024-03-23T03:26:43;96200.84;;;8.36;91.73
78890;BME280;68279;48.964;14.502;2024-03-23T03:29:09;96196.41;;;8.50;92.48
78890;BME280;68279;48.964;14.502;2024-03-23T03:31:35;96197.34;;;8.41;91.20
78890;BME280;68279;48.964;14.502;2024-03-23T03:34:01;96194.69;;;8.60;91.22
78890;BME280;68279;48.964;14.502;2024-03-23T03:36:27;96187.19;;;8.62;90.73
78890;BME280;68279;48.964;14.502;2024-03-23T03:38:53;96193.69;;;8.32;91.72
78890;BME280;68279;48.964;14.502;2024-03-23T03:41:19;96181.28;;;8.22;92.78
78890;BME280;68279;48.964;14.502;2024-03-23T03:43:44;96174.09;;;7.99;94.01
78890;BME280;68279;48.964;14.502;2024-03-23T03:46:10;96167.56;;;7.86;94.60
78890;BME280;68279;48.964;14.502;2024-03-23T03:48:36;96164.94;;;7.62;96.08
78890;BME280;68279;48.964;14.502;2024-03-23T03:51:02;96164.06;;;7.66;95.80
78890;BME280;68279;48.964;14.502;2024-03-23T03:53:28;96163.28;;;7.66;95.90
78890;BME280;68279;48.964;14.502;2024-03-23T03:55:53;96160.06;;;7.93;94.78
78890;BME280;68279;48.964;14.502;2024-03-23T03:58:19;96152.78;;;8.22;93.47
78890;BME280;68279;48.964;14.502;2024-03-23T04:00:44;96157.75;;;7.86;93.97
78890;BME280;68279;48.964;14.502;2024-03-23T04:03:10;96157.84;;;7.76;93.89
78890;BME280;68279;48.964;14.502;2024-03-23T04:05:36;96154.31;;;7.57;95.85
78890;BME280;68279;48.964;14.502;2024-03-23T04:08:01;96155.25;;;7.71;94.65
78890;BME280;68279;48.964;14.502;2024-03-23T04:10:27;96152.69;;;7.61;95.48
78890;BME280;68279;48.964;14.502;2024-03-23T04:12:52;96148.47;;;7.31;95.47
78890;BME280;68279;48.964;14.502;2024-03-23T04:15:19;96144.50;;;7.28;96.56
78890;BME280;68279;48.964;14.502;2024-03-23T04:17:45;96151.53;;;7.14;97.31
78890;BME280;68279;48.964;14.502;2024-03-23T04:20:11;96139.69;;;7.30;96.66
78890;BME280;68279;48.964;14.502;2024-03-23T04:22:39;96136.91;;;7.17;96.63
78890;BME280;68279;48.964;14.502;2024-03-23T04:25:05;96140.28;;;7.22;97.22
78890;BME280;68279;48.964;14.502;2024-03-23T04:27:39;96142.53;;;7.10;98.58
78890;BME280;68279;48.964;14.502;2024-03-23T04:30:06;96133.91;;;6.94;98.51
78890;BME280;68279;48.964;14.502;2024-03-23T04:32:37;96136.41;;;6.80;99.66
78890;BME280;68279;48.964;14.502;2024-03-23T04:35:03;96132.94;;;6.80;100.00
78890;BME280;68279;48.964;14.502;2024-03-23T04:37:32;96132.47;;;6.73;100.00
78890;BME280;68279;48.964;14.502;2024-03-23T04:40:00;96132.81;;;6.61;100.00
78890;BME280;68279;48.964;14.502;2024-03-23T04:42:27;96130.22;;;6.56;100.00
78890;BME280;68279;48.964;14.502;2024-03-23T04:44:53;96133.19;;;6.44;100.00
78890;BME280;68279;48.964;14.502;2024-03-23T04:47:18;96136.75;;;6.30;100.00
78890;BME280;68279;48.964;14.502;2024-03-23T04:49:44;96129.28;;;6.32;100.00
78890;BME280;68279;48.964;14.502;2024-03-23T04:52:09;96120.16;;;6.48;100.00
78890;BME280;68279;48.964;14.502;2024-03-23T04:54:35;96126.75;;;6.56;100.00
78890;BME280;68279;48.964;14.502;2024-03-23T04:57:01;96120.28;;;6.67;100.00
78890;BME280;68279;48.964;14.502;2024-03-23T04:59:26;96120.22;;;6.77;100.00
78890;BME280;68279;48.964;14.502;2024-03-23T05:01:52;96119.84;;;6.89;100.00
78890;BME280;68279;48.964;14.502;2024-03-23T05:04:17;96107.50;;;7.03;100.00
78890;BME280;68279;48.964;14.502;2024-03-23T05:06:43;96112.53;;;7.04;100.00
78890;BME280;68279;48.964;14.502;2024-03-23T05:09:08;96101.91;;;7.04;100.00
78890;BME280;68279;48.964;14.502;2024-03-23T05:11:37;96108.16;;;7.19;100.00
78890;BME280;68279;48.964;14.502;2024-03-23T05:14:03;96108.69;;;7.45;98.98
78890;BME280;68279;48.964;14.502;2024-03-23T05:16:29;96108.44;;;7.70;97.64
78890;BME280;68279;48.964;14.502;2024-03-23T05:18:54;96104.59;;;8.19;95.11
78890;BME280;68279;48.964;14.502;2024-03-23T05:21:19;96093.69;;;8.58;92.63
78890;BME280;68279;48.964;14.502;2024-03-23T05:23:45;96094.41;;;8.96;90.13
78890;BME280;68279;48.964;14.502;2024-03-23T05:26:10;96096.03;;;9.11;89.46
78890;BME280;68279;48.964;14.502;2024-03-23T05:28:36;96096.47;;;9.32;88.03
78890;BME280;68279;48.964;14.502;2024-03-23T05:31:01;96094.59;;;9.32;88.25
78890;BME280;68279;48.964;14.502;2024-03-23T05:33:27;96098.88;;;9.47;87.54
78890;BME280;68279;48.964;14.502;2024-03-23T05:36:00;96096.00;;;9.57;87.33
78890;BME280;68279;48.964;14.502;2024-03-23T05:38:26;96093.94;;;9.82;85.28
78890;BME280;68279;48.964;14.502;2024-03-23T05:40:54;96090.16;;;9.83;86.51
78890;BME280;68279;48.964;14.502;2024-03-23T05:43:20;96084.41;;;10.03;84.69
78890;BME280;68279;48.964;14.502;2024-03-23T05:45:46;96090.00;;;10.15;83.52
78890;BME280;68279;48.964;14.502;2024-03-23T05:48:18;96085.47;;;10.30;83.54
78890;BME280;68279;48.964;14.502;2024-03-23T05:50:43;96093.97;;;10.32;82.42
78890;BME280;68279;48.964;14.502;2024-03-23T05:53:09;96086.06;;;10.27;84.08
78890;BME280;68279;48.964;14.502;2024-03-23T05:55:35;96083.16;;;10.37;81.41
78890;BME280;68279;48.964;14.502;2024-03-23T05:58:01;96074.94;;;10.33;82.37
78890;BME280;68279;48.964;14.502;2024-03-23T06:00:26;96073.97;;;10.29;83.43
78890;BME280;68279;48.964;14.502;2024-03-23T06:02:52;96068.00;;;10.46;81.65
78890;BME280;68279;48.964;14.502;2024-03-23T06:05:17;96049.69;;;10.39;81.48
78890;BME280;68279;48.964;14.502;2024-03-23T06:07:43;96045.81;;;10.45;81.11
78890;BME280;68279;48.964;14.502;2024-03-23T06:10:09;96043.25;;;10.40;81.39
78890;BME280;68279;48.964;14.502;2024-03-23T06:12:34;96046.22;;;10.39;81.13
78890;BME280;68279;48.964;14.502;2024-03-23T06:15:00;96043.38;;;10.35;81.29
78890;BME280;68279;48.964;14.502;2024-03-23T06:17:26;96053.91;;;10.18;82.70
78890;BME280;68279;48.964;14.502;2024-03-23T06:19:51;96060.22;;;10.22;81.95
78890;BME280;68279;48.964;14.502;2024-03-23T06:22:17;96044.88;;;10.28;81.00
78890;BME280;68279;48.964;14.502;2024-03-23T06:24:42;96045.56;;;10.19;81.24
78890;BME280;68279;48.964;14.502;2024-03-23T06:27:08;96050.31;;;10.36;79.22
78890;BME280;68279;48.964;14.502;2024-03-23T06:29:34;96056.81;;;10.44;78.45
78890;BME280;68279;48.964;14.502;2024-03-23T06:31:59;96053.09;;;10.31;79.11
78890;BME280;68279;48.964;14.502;2024-03-23T06:34:25;96056.41;;;10.73;77.38
78890;BME280;68279;48.964;14.502;2024-03-23T06:36:50;96063.00;;;10.98;77.78
78890;BME280;68279;48.964;14.502;2024-03-23T06:39:16;96056.22;;;11.23;74.81
78890;BME280;68279;48.964;14.502;2024-03-23T06:41:42;96052.78;;;11.31;74.46
78890;BME280;68279;48.964;14.502;2024-03-23T06:44:08;96039.44;;;11.40;74.73
78890;BME280;68279;48.964;14.502;2024-03-23T06:46:34;96036.94;;;11.43;72.75
78890;BME280;68279;48.964;14.502;2024-03-23T06:48:59;96018.84;;;11.49;74.04
78890;BME280;68279;48.964;14.502;2024-03-23T06:51:25;96016.47;;;11.56;73.24
78890;BME280;68279;48.964;14.502;2024-03-23T06:53:50;96019.81;;;11.61;72.87
78890;BME280;68279;48.964;14.502;2024-03-23T06:56:16;96013.84;;;11.73;73.10
78890;BME280;68279;48.964;14.502;2024-03-23T06:58:42;96017.09;;;11.84;71.92
78890;BME280;68279;48.964;14.502;2024-03-23T07:01:07;96001.00;;;11.93;73.26
78890;BME280;68279;48.964;14.502;2024-03-23T07:03:33;95991.72;;;11.99;71.53
78890;BME280;68279;48.964;14.502;2024-03-23T07:05:58;95995.50;;;12.06;72.27
78890;BME280;68279;48.964;14.502;2024-03-23T07:08:24;95980.84;;;12.12;70.54
78890;BME280;68279;48.964;14.502;2024-03-23T07:10:50;95971.84;;;12.26;70.09
78890;BME280;68279;48.964;14.502;2024-03-23T07:13:15;95966.00;;;12.41;71.08
78890;BME280;68279;48.964;14.502;2024-03-23T07:15:42;95970.38;;;12.63;68.29
78890;BME280;68279;48.964;14.502;2024-03-23T07:18:08;95947.66;;;12.69;67.61
78890;BME280;68279;48.964;14.502;2024-03-23T07:20:34;95956.31;;;12.74;67.17
78890;BME280;68279;48.964;14.502;2024-03-23T07:23:00;95957.06;;;12.92;67.50
78890;BME280;68279;48.964;14.502;2024-03-23T07:25:25;95954.66;;;12.99;65.82
78890;BME280;68279;48.964;14.502;2024-03-23T07:27:53;95947.81;;;13.11;65.26
78890;BME280;68279;48.964;14.502;2024-03-23T07:30:18;95932.97;;;13.13;64.96
78890;BME280;68279;48.964;14.502;2024-03-23T07:32:44;95943.19;;;13.28;65.22
78890;BME280;68279;48.964;14.502;2024-03-23T07:35:10;95930.56;;;13.29;63.01
78890;BME280;68279;48.964;14.502;2024-03-23T07:37:35;95928.56;;;13.47;64.11
78890;BME280;68279;48.964;14.502;2024-03-23T07:40:01;95933.88;;;13.55;65.00
78890;BME280;68279;48.964;14.502;2024-03-23T07:42:27;95927.16;;;13.91;63.99
78890;BME280;68279;48.964;14.502;2024-03-23T07:44:54;95937.31;;;14.06;61.78
78890;BME280;68279;48.964;14.502;2024-03-23T07:47:22;95957.97;;;14.14;60.32
78890;BME280;68279;48.964;14.502;2024-03-23T07:49:48;95946.09;;;14.15;59.15
78890;BME280;68279;48.964;14.502;2024-03-23T07:52:14;95939.47;;;14.13;59.36
78890;BME280;68279;48.964;14.502;2024-03-23T07:54:39;95944.94;;;14.37;61.63
78890;BME280;68279;48.964;14.502;2024-03-23T07:57:05;95937.47;;;14.22;59.83
78890;BME280;68279;48.964;14.502;2024-03-23T07:59:32;95931.25;;;14.30;60.85
78890;BME280;68279;48.964;14.502;2024-03-23T08:01:59;95935.75;;;14.38;61.66
78890;BME280;68279;48.964;14.502;2024-03-23T08:04:27;95934.97;;;14.59;59.64
78890;BME280;68279;48.964;14.502;2024-03-23T08:06:53;95928.34;;;14.56;58.84
78890;BME280;68279;48.964;14.502;2024-03-23T08:09:18;95927.06;;;14.87;59.09
78890;BME280;68279;48.964;14.502;2024-03-23T08:11:44;95913.16;;;14.85;57.87
78890;BME280;68279;48.964;14.502;2024-03-23T08:14:12;95893.63;;;14.88;57.85
78890;BME280;68279;48.964;14.502;2024-03-23T08:16:38;95897.25;;;15.16;58.72
78890;BME280;68279;48.964;14.502;2024-03-23T08:19:03;95897.69;;;15.30;58.98
78890;BME280;68279;48.964;14.502;2024-03-23T08:21:30;95886.00;;;15.26;56.99
78890;BME280;68279;48.964;14.502;2024-03-23T08:23:55;95887.47;;;15.24;58.52
78890;BME280;68279;48.964;14.502;2024-03-23T08:26:21;95889.25;;;15.56;58.13
78890;BME280;68279;48.964;14.502;2024-03-23T08:28:46;95879.75;;;15.22;58.08
78890;BME280;68279;48.964;14.502;2024-03-23T08:31:13;95880.41;;;15.32;57.44
78890;BME280;68279;48.964;14.502;2024-03-23T08:33:40;95876.34;;;15.50;58.02
78890;BME280;68279;48.964;14.502;2024-03-23T08:36:09;95861.94;;;15.58;57.14
78890;BME280;68279;48.964;14.502;2024-03-23T08:38:37;95859.50;;;15.41;56.72
78890;BME280;68279;48.964;14.502;2024-03-23T08:41:08;95841.78;;;15.92;57.08
78890;BME280;68279;48.964;14.502;2024-03-23T08:43:39;95843.19;;;16.02;56.42
78890;BME280;68279;48.964;14.502;2024-03-23T08:48:31;95840.06;;;16.00;56.75
78890;BME280;68279;48.964;14.502;2024-03-23T08:51:04;95837.09;;;16.05;56.84
78890;BME280;68279;48.964;14.502;2024-03-23T08:53:30;95838.47;;;15.99;55.20
78890;BME280;68279;48.964;14.502;2024-03-23T08:55:56;95837.94;;;16.21;55.87
78890;BME280;68279;48.964;14.502;2024-03-23T08:58:23;95826.19;;;16.29;53.38
78890;BME280;68279;48.964;14.502;2024-03-23T09:00:53;95827.00;;;16.02;53.81
78890;BME280;68279;48.964;14.502;2024-03-23T09:03:22;95830.53;;;15.50;54.72
78890;BME280;68279;48.964;14.502;2024-03-23T09:05:49;95816.78;;;16.23;53.63
78890;BME280;68279;48.964;14.502;2024-03-23T09:08:15;95828.72;;;16.38;52.13
78890;BME280;68279;48.964;14.502;2024-03-23T09:10:41;95817.94;;;16.38;52.39
78890;BME280;68279;48.964;14.502;2024-03-23T09:13:07;95811.34;;;16.83;51.57
78890;BME280;68279;48.964;14.502;2024-03-23T09:15:37;95808.81;;;16.58;50.16
78890;BME280;68279;48.964;14.502;2024-03-23T09:18:03;95806.66;;;16.80;51.63
78890;BME280;68279;48.964;14.502;2024-03-23T09:20:32;95804.09;;;16.87;50.22
78890;BME280;68279;48.964;14.502;2024-03-23T09:22:58;95801.03;;;17.04;50.87
78890;BME280;68279;48.964;14.502;2024-03-23T09:25:25;95795.03;;;16.95;48.62
78890;BME280;68279;48.964;14.502;2024-03-23T09:27:51;95794.44;;;17.56;48.04
78890;BME280;68279;48.964;14.502;2024-03-23T09:30:17;95790.44;;;17.85;48.45
78890;BME280;68279;48.964;14.502;2024-03-23T09:32:44;95780.66;;;17.42;48.79
78890;BME280;68279;48.964;14.502;2024-03-23T09:35:10;95783.84;;;17.47;48.60
78890;BME280;68279;48.964;14.502;2024-03-23T09:37:36;95779.22;;;16.78;49.79
78890;BME280;68279;48.964;14.502;2024-03-23T09:40:02;95784.41;;;16.23;50.26
78890;BME280;68279;48.964;14.502;2024-03-23T09:42:28;95793.78;;;16.13;49.14
78890;BME280;68279;48.964;14.502;2024-03-23T09:44:54;95800.09;;;15.90;50.20
78890;BME280;68279;48.964;14.502;2024-03-23T09:47:22;95797.16;;;15.67;50.62
78890;BME280;68279;48.964;14.502;2024-03-23T09:49:47;95818.84;;;15.58;52.35
78890;BME280;68279;48.964;14.502;2024-03-23T09:52:13;95836.81;;;15.42;51.88
78890;BME280;68279;48.964;14.502;2024-03-23T09:54:39;95832.81;;;15.23;52.80
78890;BME280;68279;48.964;14.502;2024-03-23T09:57:05;95842.59;;;14.91;54.68
78890;BME280;68279;48.964;14.502;2024-03-23T09:59:32;95856.16;;;14.70;56.26
78890;BME280;68279;48.964;14.502;2024-03-23T10:01:58;95860.31;;;14.35;59.62
78890;BME280;68279;48.964;14.502;2024-03-23T10:04:37;95857.03;;;14.17;58.90
78890;BME280;68279;48.964;14.502;2024-03-23T10:07:13;95883.38;;;13.91;60.25
78890;BME280;68279;48.964;14.502;2024-03-23T10:09:39;95876.59;;;13.43;64.66
78890;BME280;68279;48.964;14.502;2024-03-23T10:12:12;95898.84;;;13.52;62.76
78890;BME280;68279;48.964;14.502;2024-03-23T10:14:41;95911.28;;;13.56;62.67
78890;BME280;68279;48.964;14.502;2024-03-23T10:17:20;95907.97;;;13.51;64.04
78890;BME280;68279;48.964;14.502;2024-03-23T10:19:50;95917.31;;;13.53;64.98
78890;BME280;68279;48.964;14.502;2024-03-23T10:22:20;95931.75;;;13.40;65.89
78890;BME280;68279;48.964;14.502;2024-03-23T10:24:48;95957.72;;;13.27;67.81
78890;BME280;68279;48.964;14.502;2024-03-23T10:27:21;95953.34;;;13.05;67.40
78890;BME280;68279;48.964;14.502;2024-03-23T10:29:49;95965.25;;;12.87;69.78
78890;BME280;68279;48.964;14.502;2024-03-23T10:32:18;95986.47;;;12.63;72.31
78890;BME280;68279;48.964;14.502;2024-03-23T10:34:45;95994.56;;;12.37;73.87
78890;BME280;68279;48.964;14.502;2024-03-23T10:37:11;96000.72;;;12.11;75.43
78890;BME280;68279;48.964;14.502;2024-03-23T10:39:39;95986.19;;;11.38;78.12
78890;BME280;68279;48.964;14.502;2024-03-23T10:42:07;96009.03;;;10.96;78.34
78890;BME280;68279;48.964;14.502;2024-03-23T10:44:33;96017.91;;;10.83;78.88
78890;BME280;68279;48.964;14.502;2024-03-23T10:47:01;96023.03;;;11.01;73.85
78890;BME280;68279;48.964;14.502;2024-03-23T10:49:31;96020.16;;;10.89;76.89
78890;BME280;68279;48.964;14.502;2024-03-23T10:51:58;96017.66;;;10.93;74.99
78890;BME280;68279;48.964;14.502;2024-03-23T10:54:25;96026.94;;;10.95;74.26
78890;BME280;68279;48.964;14.502;2024-03-23T10:56:59;96027.25;;;10.94;69.94
78890;BME280;68279;48.964;14.502;2024-03-23T10:59:27;96004.09;;;10.89;70.44
78890;BME280;68279;48.964;14.502;2024-03-23T11:01:59;95994.41;;;10.71;71.96
78890;BME280;68279;48.964;14.502;2024-03-23T11:04:36;96009.56;;;10.53;70.63
78890;BME280;68279;48.964;14.502;2024-03-23T11:09:52;96014.63;;;10.41;69.25
78890;BME280;68279;48.964;14.502;2024-03-23T11:14:54;96003.41;;;10.30;69.75
78890;BME280;68279;48.964;14.502;2024-03-23T11:17:21;95998.75;;;10.36;69.18
78890;BME280;68279;48.964;14.502;2024-03-23T11:25:11;96044.81;;;10.41;67.04
78890;BME280;68279;48.964;14.502;2024-03-23T11:27:37;96050.53;;;10.48;67.74
78890;BME280;68279;48.964;14.502;2024-03-23T11:30:16;96055.31;;;10.52;66.95
78890;BME280;68279;48.964;14.502;2024-03-23T11:32:45;96045.19;;;10.48;67.44
78890;BME280;68279;48.964;14.502;2024-03-23T11:35:32;96037.56;;;10.56;67.01
78890;BME280;68279;48.964;14.502;2024-03-23T11:40:41;96040.06;;;10.52;67.36
78890;BME280;68279;48.964;14.502;2024-03-23T11:43:09;96042.53;;;10.48;67.65
78890;BME280;68279;48.964;14.502;2024-03-23T11:45:37;96040.94;;;10.47;68.12
78890;BME280;68279;48.964;14.502;2024-03-23T11:48:05;96038.03;;;10.58;68.38
78890;BME280;68279;48.964;14.502;2024-03-23T11:50:31;96039.44;;;10.55;68.24
78890;BME280;68279;48.964;14.502;2024-03-23T11:53:15;96038.66;;;10.55;68.84
78890;BME280;68279;48.964;14.502;2024-03-23T11:55:49;96021.56;;;10.64;68.40
78890;BME280;68279;48.964;14.502;2024-03-23T11:58:16;96029.47;;;10.47;70.06
78890;BME280;68279;48.964;14.502;2024-03-23T12:00:43;96034.81;;;10.47;70.31
78890;BME280;68279;48.964;14.502;2024-03-23T12:03:16;96038.19;;;10.53;71.09
78890;BME280;68279;48.964;14.502;2024-03-23T12:05:42;96044.72;;;10.69;69.66
78890;BME280;68279;48.964;14.502;2024-03-23T12:08:17;96049.00;;;10.70;69.36
78890;BME280;68279;48.964;14.502;2024-03-23T12:10:51;96052.78;;;10.77;69.50
78890;BME280;68279;48.964;14.502;2024-03-23T12:13:21;96033.34;;;10.86;69.11
78890;BME280;68279;48.964;14.502;2024-03-23T12:16:08;96032.78;;;10.97;68.12
78890;BME280;68279;48.964;14.502;2024-03-23T12:18:37;96030.63;;;11.08;68.13
78890;BME280;68279;48.964;14.502;2024-03-23T12:21:04;96021.50;;;11.09;68.37
78890;BME280;68279;48.964;14.502;2024-03-23T12:23:30;96032.53;;;11.07;68.47
78890;BME280;68279;48.964;14.502;2024-03-23T12:25:55;96028.06;;;11.03;68.44
78890;BME280;68279;48.964;14.502;2024-03-23T12:28:21;96023.81;;;11.02;68.00
78890;BME280;68279;48.964;14.502;2024-03-23T12:30:47;96030.47;;;11.04;67.54
78890;BME280;68279;48.964;14.502;2024-03-23T12:33:14;96032.84;;;11.06;67.00
78890;BME280;68279;48.964;14.502;2024-03-23T12:35:40;96040.47;;;10.90;66.83
78890;BME280;68279;48.964;14.502;2024-03-23T12:38:05;96049.00;;;10.70;64.78
78890;BME280;68279;48.964;14.502;2024-03-23T12:40:31;96046.78;;;10.49;66.33
78890;BME280;68279;48.964;14.502;2024-03-23T12:42:56;96055.59;;;10.50;66.93
78890;BME280;68279;48.964;14.502;2024-03-23T12:45:23;96044.34;;;10.39;66.33
78890;BME280;68279;48.964;14.502;2024-03-23T12:47:50;96065.72;;;10.39;66.02
78890;BME280;68279;48.964;14.502;2024-03-23T12:50:23;96058.13;;;10.33;66.08
78890;BME280;68279;48.964;14.502;2024-03-23T12:52:49;96061.41;;;10.30;67.50
78890;BME280;68279;48.964;14.502;2024-03-23T12:55:16;96059.22;;;10.32;67.67
78890;BME280;68279;48.964;14.502;2024-03-23T12:57:41;96047.88;;;10.26;67.13
78890;BME280;68279;48.964;14.502;2024-03-23T13:00:07;96035.69;;;10.34;67.16
78890;BME280;68279;48.964;14.502;2024-03-23T13:02:40;96025.94;;;10.38;67.43
78890;BME280;68279;48.964;14.502;2024-03-23T13:05:06;96029.06;;;10.54;67.31
78890;BME280;68279;48.964;14.502;2024-03-23T13:07:34;96031.25;;;10.52;65.54
78890;BME280;68279;48.964;14.502;2024-03-23T13:10:01;96027.16;;;10.54;67.05
78890;BME280;68279;48.964;14.502;2024-03-23T13:12:27;96049.97;;;10.52;66.17
78890;BME280;68279;48.964;14.502;2024-03-23T13:14:53;96041.38;;;10.41;67.01
78890;BME280;68279;48.964;14.502;2024-03-23T13:17:18;96043.50;;;10.30;66.36
78890;BME280;68279;48.964;14.502;2024-03-23T13:19:44;96033.91;;;10.29;61.79
78890;BME280;68279;48.964;14.502;2024-03-23T13:22:10;96018.34;;;10.31;59.28
78890;BME280;68279;48.964;14.502;2024-03-23T13:24:38;96030.13;;;10.30;58.91
78890;BME280;68279;48.964;14.502;2024-03-23T13:27:04;96034.78;;;10.25;55.82
78890;BME280;68279;48.964;14.502;2024-03-23T13:29:33;96048.06;;;10.16;56.99
78890;BME280;68279;48.964;14.502;2024-03-23T13:32:03;96065.78;;;10.12;55.84
78890;BME280;68279;48.964;14.502;2024-03-23T13:34:29;96073.09;;;10.06;57.01
78890;BME280;68279;48.964;14.502;2024-03-23T13:36:55;96096.44;;;10.14;55.83
78890;BME280;68279;48.964;14.502;2024-03-23T13:39:21;96097.66;;;10.08;56.69
78890;BME280;68279;48.964;14.502;2024-03-23T13:41:47;96111.59;;;10.05;55.30
78890;BME280;68279;48.964;14.502;2024-03-23T13:44:13;96098.44;;;9.95;56.44
78890;BME280;68279;48.964;14.502;2024-03-23T13:46:42;96111.50;;;9.97;57.00
78890;BME280;68279;48.964;14.502;2024-03-23T13:49:27;96113.59;;;10.00;55.79
78890;BME280;68279;48.964;14.502;2024-03-23T13:51:56;96121.69;;;9.94;56.45
78890;BME280;68279;48.964;14.502;2024-03-23T13:54:26;96123.28;;;9.96;56.73
78890;BME280;68279;48.964;14.502;2024-03-23T13:56:52;96126.63;;;9.87;57.11
78890;BME280;68279;48.964;14.502;2024-03-23T13:59:18;96134.34;;;9.89;56.43